Time;durP1;ratioP1;P1;durP2;ratioP2;P2;SDS_P1;SDS_P2;PMS_P1;PMS_P2;Temp;Humidity;BMP_temperature;BMP_pressure;BME280_temperature;BME280_humidity;BME280_pressure;Samples;Min_cycle;Max_cycle;Signal;HPM_P1;HPM_P2
2021/10/20 00:00:05;;;;;;;;;13.25;12.75;;;;;;;;5116485;27;8767;-82
2021/10/20 00:02:30;;;;;;;;;12.67;11.67;;;;;;;;5116524;27;8821;-82
2021/10/20 00:04:55;;;;;;;;;9.67;9.67;;;;;;;;5115318;28;8806;-82
2021/10/20 00:07:21;;;;;;;;;14.00;11.33;;;;;;;;5118671;28;8799;-82
2021/10/20 00:09:46;;;;;;;;;13.67;13.67;;;;;;;;5120150;27;8779;-79
2021/10/20 00:12:11;;;;;;;;;9.33;9.00;;;;;;;;5119850;27;8803;-79
2021/10/20 00:14:37;;;;;;;;;10.67;10.67;;;;;;;;5118222;28;9802;-81
2021/10/20 00:17:05;;;;;;;;;14.67;14.00;;;;;;;;5119733;27;8787;-82
2021/10/20 00:19:33;;;;;;;;;11.75;11.00;;;;;;;;5118370;28;8740;-82
2021/10/20 00:21:59;;;;;;;;;13.00;10.50;;;;;;;;5118249;28;8868;-82
2021/10/20 00:24:24;;;;;;;;;14.67;11.00;;;;;;;;5118455;28;8806;-82
2021/10/20 00:26:50;;;;;;;;;12.33;11.67;;;;;;;;5118131;28;8829;-82
2021/10/20 00:29:15;;;;;;;;;12.67;12.67;;;;;;;;5118281;28;8798;-78
2021/10/20 00:31:41;;;;;;;;;11.00;11.00;;;;;;;;5098149;28;8872;-79
2021/10/20 00:34:06;;;;;;;;;11.00;11.00;;;;;;;;5099197;28;8923;-79
2021/10/20 00:36:32;;;;;;;;;13.00;13.00;;;;;;;;5098847;28;8844;-79
2021/10/20 00:38:57;;;;;;;;;13.00;13.00;;;;;;;;5099136;28;8988;-82
2021/10/20 00:41:29;;;;;;;;;13.00;13.00;;;;;;;;5097624;28;8802;-81
2021/10/20 00:43:54;;;;;;;;;14.50;14.50;;;;;;;;5097444;28;8812;-82
2021/10/20 00:46:27;;;;;;;;;9.67;9.67;;;;;;;;5097689;28;8821;-79
2021/10/20 00:48:53;;;;;;;;;10.75;10.75;;;;;;;;5098997;28;8766;-82
2021/10/20 00:51:19;;;;;;;;;10.67;10.67;;;;;;;;5098845;28;8832;-79
2021/10/20 00:53:44;;;;;;;;;12.00;12.00;;;;;;;;5097373;28;8805;-79
2021/10/20 00:56:09;;;;;;;;;12.00;12.00;;;;;;;;5098921;28;8793;-79
2021/10/20 00:58:34;;;;;;;;;10.33;10.33;;;;;;;;5098640;28;8793;-79
2021/10/20 01:01:00;;;;;;;;;9.67;9.00;;;;;;;;5097495;28;8817;-80
2021/10/20 01:03:25;;;;;;;;;15.33;13.00;;;;;;;;5098765;28;8816;-82
2021/10/20 01:05:50;;;;;;;;;11.00;11.00;;;;;;;;5097116;28;8816;-82
2021/10/20 01:08:20;;;;;;;;;14.00;14.00;;;;;;;;5097238;28;8786;-82
2021/10/20 01:10:46;;;;;;;;;12.75;11.75;;;;;;;;5097257;28;8770;-80
2021/10/20 01:13:11;;;;;;;;;12.00;10.67;;;;;;;;5098418;28;8829;-82
2021/10/20 01:15:36;;;;;;;;;10.00;10.00;;;;;;;;5096935;28;8821;-79
2021/10/20 01:18:02;;;;;;;;;12.67;12.67;;;;;;;;5097583;28;8790;-82
2021/10/20 01:20:31;;;;;;;;;13.25;13.25;;;;;;;;5096961;28;8782;-79
2021/10/20 01:22:57;;;;;;;;;14.50;14.50;;;;;;;;5096863;28;8863;-79
2021/10/20 01:25:23;;;;;;;;;14.33;12.67;;;;;;;;5097169;28;8790;-79
2021/10/20 01:27:49;;;;;;;;;17.00;15.33;;;;;;;;5098368;28;8908;-79
2021/10/20 01:30:14;;;;;;;;;12.67;12.67;;;;;;;;5106146;28;8818;-79
2021/10/20 01:32:39;;;;;;;;;11.33;11.33;;;;;;;;5118649;27;9643;-79
2021/10/20 01:35:05;;;;;;;;;13.00;13.00;;;;;;;;5118600;27;8877;-79
2021/10/20 01:37:30;;;;;;;;;11.67;11.67;;;;;;;;5118419;27;8794;-82
2021/10/20 01:39:57;;;;;;;;;15.00;15.00;;;;;;;;5118662;27;8834;-82
2021/10/20 01:42:26;;;;;;;;;14.75;14.00;;;;;;;;5117042;28;8771;-82
2021/10/20 01:44:51;;;;;;;;;15.00;14.25;;;;;;;;5117138;28;8749;-79
2021/10/20 01:47:17;;;;;;;;;14.00;13.67;;;;;;;;5116970;28;8919;-81
2021/10/20 01:49:42;;;;;;;;;15.33;15.33;;;;;;;;5117024;28;8810;-82
2021/10/20 01:52:11;;;;;;;;;16.67;15.00;;;;;;;;5116750;28;8835;-83
2021/10/20 01:54:37;;;;;;;;;16.00;15.25;;;;;;;;5116762;28;8751;-79
2021/10/20 01:57:02;;;;;;;;;14.33;12.67;;;;;;;;5116786;28;9689;-79
2021/10/20 01:59:27;;;;;;;;;15.00;14.00;;;;;;;;5118324;27;8767;-79
2021/10/20 02:01:53;;;;;;;;;14.67;14.67;;;;;;;;5118432;27;8869;-79
2021/10/20 02:04:18;;;;;;;;;16.00;15.00;;;;;;;;5118290;27;8932;-79
2021/10/20 02:06:43;;;;;;;;;13.00;12.00;;;;;;;;5118243;27;8760;-79
2021/10/20 02:09:09;;;;;;;;;14.67;14.00;;;;;;;;5116953;28;8833;-79
2021/10/20 02:11:35;;;;;;;;;11.67;11.67;;;;;;;;5118011;27;8763;-79
2021/10/20 02:14:01;;;;;;;;;15.33;14.67;;;;;;;;5118027;27;11517;-79
2021/10/20 02:16:26;;;;;;;;;15.33;15.33;;;;;;;;5116434;28;8803;-82
2021/10/20 02:18:54;;;;;;;;;13.00;12.00;;;;;;;;5116701;28;8787;-82
2021/10/20 02:21:29;;;;;;;;;13.75;13.75;;;;;;;;5116544;28;8901;-82
2021/10/20 02:23:57;;;;;;;;;17.33;17.00;;;;;;;;5116089;28;8791;-82
2021/10/20 02:26:23;;;;;;;;;16.50;15.50;;;;;;;;5116526;28;8791;-82
2021/10/20 02:28:48;;;;;;;;;15.33;15.33;;;;;;;;5117479;27;8807;-82
2021/10/20 02:31:14;;;;;;;;;13.00;13.00;;;;;;;;5099786;28;8817;-78
2021/10/20 02:33:39;;;;;;;;;14.67;14.67;;;;;;;;5095706;28;8817;-81
2021/10/20 02:36:05;;;;;;;;;14.00;14.00;;;;;;;;5097198;28;8875;-78
2021/10/20 02:38:30;;;;;;;;;16.25;15.50;;;;;;;;5096897;28;8775;-79
2021/10/20 02:40:56;;;;;;;;;15.00;15.00;;;;;;;;5097173;28;8884;-77
2021/10/20 02:43:21;;;;;;;;;17.67;16.00;;;;;;;;5097114;28;8919;-77
2021/10/20 02:45:46;;;;;;;;;15.67;15.67;;;;;;;;5097292;28;9610;-78
2021/10/20 02:48:11;;;;;;;;;13.33;13.33;;;;;;;;5097208;28;8824;-79
2021/10/20 02:50:37;;;;;;;;;16.67;15.33;;;;;;;;5095700;28;8828;-78
2021/10/20 02:53:02;;;;;;;;;14.00;14.00;;;;;;;;5096556;28;8894;-81
2021/10/20 02:55:27;;;;;;;;;13.00;13.00;;;;;;;;5096968;28;8813;-81
2021/10/20 02:57:53;;;;;;;;;10.67;10.67;;;;;;;;5095266;28;8805;-81
2021/10/20 03:00:18;;;;;;;;;12.33;12.33;;;;;;;;5096739;28;9595;-82
2021/10/20 03:02:43;;;;;;;;;14.67;14.67;;;;;;;;5097071;28;9867;-82
2021/10/20 03:05:09;;;;;;;;;11.67;11.67;;;;;;;;5096732;28;9513;-82
2021/10/20 03:07:34;;;;;;;;;13.00;12.00;;;;;;;;5096622;28;8904;-78
2021/10/20 03:10:00;;;;;;;;;16.33;13.67;;;;;;;;5095612;28;8820;-77
2021/10/20 03:12:25;;;;;;;;;13.67;13.33;;;;;;;;5095011;28;8802;-79
2021/10/20 03:14:50;;;;;;;;;16.33;16.33;;;;;;;;5096521;28;8813;-83
2021/10/20 03:17:16;;;;;;;;;13.00;13.00;;;;;;;;5096647;28;8777;-81
2021/10/20 03:19:42;;;;;;;;;15.50;15.50;;;;;;;;5096722;28;8858;-81
2021/10/20 03:22:08;;;;;;;;;13.00;13.00;;;;;;;;5096544;28;8900;-78
2021/10/20 03:24:34;;;;;;;;;14.33;13.67;;;;;;;;5096506;28;8789;-81
2021/10/20 03:26:59;;;;;;;;;12.00;12.00;;;;;;;;5095023;28;8800;-77
2021/10/20 03:29:26;;;;;;;;;14.50;14.00;;;;;;;;5097423;28;8863;-81
2021/10/20 03:31:51;;;;;;;;;17.33;16.00;;;;;;;;5115595;28;8822;-78
2021/10/20 03:34:16;;;;;;;;;12.67;12.33;;;;;;;;5115537;28;8825;-79
2021/10/20 03:36:41;;;;;;;;;14.33;14.33;;;;;;;;5116587;27;8807;-79
2021/10/20 03:39:06;;;;;;;;;12.67;10.67;;;;;;;;5115548;28;9809;-81
2021/10/20 03:41:32;;;;;;;;;13.67;13.00;;;;;;;;5122517;27;8815;-82
2021/10/20 03:43:57;;;;;;;;;13.00;12.67;;;;;;;;5123716;27;8787;-82
2021/10/20 03:46:22;;;;;;;;;13.33;13.33;;;;;;;;5123559;27;9633;-81
2021/10/20 03:48:47;;;;;;;;;13.67;13.67;;;;;;;;5123515;27;8845;-82
2021/10/20 03:51:12;;;;;;;;;10.67;10.67;;;;;;;;5123333;27;8799;-78
2021/10/20 03:53:38;;;;;;;;;13.00;11.33;;;;;;;;5123551;27;9625;-79
2021/10/20 03:56:03;;;;;;;;;13.00;13.00;;;;;;;;5123551;28;8787;-79
2021/10/20 03:58:28;;;;;;;;;15.00;13.67;;;;;;;;5122013;28;8843;-79
2021/10/20 04:00:54;;;;;;;;;15.00;15.00;;;;;;;;5123288;27;8775;-78
2021/10/20 04:03:19;;;;;;;;;14.67;14.00;;;;;;;;5123269;28;9421;-81
2021/10/20 04:05:44;;;;;;;;;15.00;14.67;;;;;;;;5123283;27;8803;-79
2021/10/20 04:08:09;;;;;;;;;12.33;12.33;;;;;;;;5123251;27;8864;-79
2021/10/20 04:10:35;;;;;;;;;15.67;15.67;;;;;;;;5121940;28;8823;-79
2021/10/20 04:13:00;;;;;;;;;20.00;17.00;;;;;;;;5121428;28;8807;-78
2021/10/20 04:15:25;;;;;;;;;12.67;12.00;;;;;;;;5123190;27;8795;-79
2021/10/20 04:17:51;;;;;;;;;15.00;13.67;;;;;;;;5123139;27;8814;-79
2021/10/20 04:20:17;;;;;;;;;17.33;15.00;;;;;;;;5123332;27;8791;-80
2021/10/20 04:22:42;;;;;;;;;18.00;17.25;;;;;;;;5123026;27;8779;-81
2021/10/20 04:25:09;;;;;;;;;12.33;12.33;;;;;;;;5121549;28;8897;-83
2021/10/20 04:27:34;;;;;;;;;16.25;16.25;;;;;;;;5122841;27;8756;-82
2021/10/20 04:30:00;;;;;;;;;15.33;15.33;;;;;;;;5116967;27;8859;-83
2021/10/20 04:32:25;;;;;;;;;16.33;15.00;;;;;;;;5102259;28;8809;-82
2021/10/20 04:34:51;;;;;;;;;14.67;13.67;;;;;;;;5110529;28;8833;-81
2021/10/20 04:37:23;;;;;;;;;15.33;15.00;;;;;;;;5102229;28;9565;-79
2021/10/20 04:39:49;;;;;;;;;14.25;14.25;;;;;;;;5102343;28;9672;-81
2021/10/20 04:42:14;;;;;;;;;13.00;13.00;;;;;;;;5102273;28;8814;-80
2021/10/20 04:44:39;;;;;;;;;12.00;12.00;;;;;;;;5102453;28;8801;-79
2021/10/20 04:47:04;;;;;;;;;11.33;10.33;;;;;;;;5102441;28;8822;-80
2021/10/20 04:49:29;;;;;;;;;13.33;12.67;;;;;;;;5100540;28;8834;-80
2021/10/20 04:51:55;;;;;;;;;14.00;12.33;;;;;;;;5098590;28;8801;-82
2021/10/20 04:54:20;;;;;;;;;13.00;11.67;;;;;;;;5106930;28;8846;-79
2021/10/20 04:56:45;;;;;;;;;17.00;17.00;;;;;;;;5106459;28;8811;-79
2021/10/20 04:59:10;;;;;;;;;7.67;7.67;;;;;;;;5109412;28;8803;-79
2021/10/20 05:01:35;;;;;;;;;14.00;14.00;;;;;;;;5098256;28;9558;-77
2021/10/20 05:04:01;;;;;;;;;12.67;12.67;;;;;;;;5103845;28;8867;-79
2021/10/20 05:06:26;;;;;;;;;10.33;10.33;;;;;;;;5098780;28;8782;-80
2021/10/20 05:08:51;;;;;;;;;15.33;14.33;;;;;;;;5104972;28;8802;-80
2021/10/20 05:11:16;;;;;;;;;12.67;12.00;;;;;;;;5099221;28;8840;-79
2021/10/20 05:13:41;;;;;;;;;13.00;12.33;;;;;;;;5098568;28;8817;-79
2021/10/20 05:16:07;;;;;;;;;13.00;13.00;;;;;;;;5098571;28;8821;-79
2021/10/20 05:18:32;;;;;;;;;17.33;17.33;;;;;;;;5098843;28;8829;-81
2021/10/20 05:20:57;;;;;;;;;12.67;12.67;;;;;;;;5098584;28;8790;-81
2021/10/20 05:23:22;;;;;;;;;13.67;11.67;;;;;;;;5098585;28;8822;-81
2021/10/20 05:25:48;;;;;;;;;13.00;13.00;;;;;;;;5097104;28;8821;-81
2021/10/20 05:28:13;;;;;;;;;11.33;11.00;;;;;;;;5098325;28;8886;-80
2021/10/20 05:30:38;;;;;;;;;11.33;11.33;;;;;;;;5110427;28;8840;-82
2021/10/20 05:33:04;;;;;;;;;16.00;13.00;;;;;;;;5118694;28;8779;-79
2021/10/20 05:35:29;;;;;;;;;14.67;14.00;;;;;;;;5118621;27;9570;-79
2021/10/20 05:37:54;;;;;;;;;15.00;13.00;;;;;;;;5118388;27;8930;-80
2021/10/20 05:40:20;;;;;;;;;14.67;13.67;;;;;;;;5118900;27;8813;-82
2021/10/20 05:42:45;;;;;;;;;15.33;15.00;;;;;;;;5118435;27;8784;-80
2021/10/20 05:45:11;;;;;;;;;11.33;11.33;;;;;;;;5117046;28;10689;-80
2021/10/20 05:47:36;;;;;;;;;13.33;13.00;;;;;;;;5119738;27;8807;-80
2021/10/20 05:50:02;;;;;;;;;13.00;13.00;;;;;;;;5119042;27;8779;-79
2021/10/20 05:52:27;;;;;;;;;14.00;14.00;;;;;;;;5117516;28;8791;-80
2021/10/20 05:54:52;;;;;;;;;13.00;13.00;;;;;;;;5114437;28;9557;-81
2021/10/20 05:57:19;;;;;;;;;13.33;13.33;;;;;;;;5120918;28;8838;-82
2021/10/20 05:59:44;;;;;;;;;13.75;13.25;;;;;;;;5122005;28;9683;-82
2021/10/20 06:02:12;;;;;;;;;12.00;12.00;;;;;;;;5117961;28;8837;-83
2021/10/20 06:04:38;;;;;;;;;14.75;14.75;;;;;;;;5121376;28;8790;-82
2021/10/20 06:07:03;;;;;;;;;14.00;14.00;;;;;;;;5120195;28;8815;-83
2021/10/20 06:09:28;;;;;;;;;15.33;15.00;;;;;;;;5121978;28;8788;-81
2021/10/20 06:11:54;;;;;;;;;14.00;14.00;;;;;;;;5120818;28;8791;-82
2021/10/20 06:14:19;;;;;;;;;15.33;15.00;;;;;;;;5122487;28;8814;-82
2021/10/20 06:16:44;;;;;;;;;14.67;13.33;;;;;;;;5124833;28;8988;-81
2021/10/20 06:19:09;;;;;;;;;12.33;11.67;;;;;;;;5122852;28;8991;-81
2021/10/20 06:21:35;;;;;;;;;13.00;13.00;;;;;;;;5121479;28;8790;-81
2021/10/20 06:24:00;;;;;;;;;14.67;14.67;;;;;;;;5121206;28;8799;-81
2021/10/20 06:26:25;;;;;;;;;13.67;13.67;;;;;;;;5117929;28;8795;-82
2021/10/20 06:28:51;;;;;;;;;13.33;12.33;;;;;;;;5117998;28;8795;-84
2021/10/20 06:31:16;;;;;;;;;15.00;14.33;;;;;;;;5116656;28;8829;-82
2021/10/20 06:33:42;;;;;;;;;18.67;17.33;;;;;;;;5118070;27;8845;-80
2021/10/20 06:36:17;;;;;;;;;15.25;13.50;;;;;;;;5119094;28;8909;-85
2021/10/20 06:38:43;;;;;;;;;14.75;13.00;;;;;;;;5120399;27;8863;-83
2021/10/20 06:41:08;;;;;;;;;12.67;12.67;;;;;;;;5120138;28;8806;-82
2021/10/20 06:43:33;;;;;;;;;14.00;14.00;;;;;;;;5118731;27;8913;-83
2021/10/20 06:46:02;;;;;;;;;17.00;14.33;;;;;;;;5118144;28;8823;-82
2021/10/20 06:48:27;;;;;;;;;12.75;12.75;;;;;;;;5117799;28;8977;-79
2021/10/20 06:50:52;;;;;;;;;15.67;14.33;;;;;;;;5117804;27;8783;-81
2021/10/20 06:53:17;;;;;;;;;15.00;13.67;;;;;;;;5117441;27;8857;-85
2021/10/20 06:55:45;;;;;;;;;16.00;16.00;;;;;;;;5119096;27;8818;-81
2021/10/20 06:58:10;;;;;;;;;15.25;15.00;;;;;;;;5117940;27;8794;-81
2021/10/20 07:00:35;;;;;;;;;17.00;15.67;;;;;;;;5116063;28;9543;-81
2021/10/20 07:03:01;;;;;;;;;14.00;14.00;;;;;;;;5116105;28;8811;-81
2021/10/20 07:05:26;;;;;;;;;13.67;13.67;;;;;;;;5117495;27;8813;-79
2021/10/20 07:07:51;;;;;;;;;17.00;16.00;;;;;;;;5117104;27;8783;-82
2021/10/20 07:10:16;;;;;;;;;16.33;16.33;;;;;;;;5117344;27;8881;-82
2021/10/20 07:12:42;;;;;;;;;13.67;12.33;;;;;;;;5117425;27;8783;-81
2021/10/20 07:15:07;;;;;;;;;16.00;15.00;;;;;;;;5115825;27;8826;-81
2021/10/20 07:17:32;;;;;;;;;16.33;15.00;;;;;;;;5117118;28;8848;-82
2021/10/20 07:19:58;;;;;;;;;19.00;18.00;;;;;;;;5115613;28;8811;-83
2021/10/20 07:22:23;;;;;;;;;17.00;16.67;;;;;;;;5115738;28;8846;-80
2021/10/20 07:24:48;;;;;;;;;14.67;14.67;;;;;;;;5115693;28;8837;-78
2021/10/20 07:27:14;;;;;;;;;17.33;16.67;;;;;;;;5116866;27;8830;-78
2021/10/20 07:29:40;;;;;;;;;20.00;20.00;;;;;;;;5113950;27;8805;-79
2021/10/20 07:32:05;;;;;;;;;17.00;17.00;;;;;;;;5096630;28;8798;-78
2021/10/20 07:34:31;;;;;;;;;18.00;18.00;;;;;;;;5096243;28;8833;-79
2021/10/20 07:36:56;;;;;;;;;19.00;17.00;;;;;;;;5094845;28;8825;-79
2021/10/20 07:39:22;;;;;;;;;19.33;17.67;;;;;;;;5096490;28;8913;-80
2021/10/20 07:41:48;;;;;;;;;17.67;17.00;;;;;;;;5096225;28;8774;-77
2021/10/20 07:44:14;;;;;;;;;20.00;20.00;;;;;;;;5096521;28;8916;-79
2021/10/20 07:46:40;;;;;;;;;18.67;18.00;;;;;;;;5097478;28;8806;-79
2021/10/20 07:49:05;;;;;;;;;17.33;16.67;;;;;;;;5096708;28;8766;-79
2021/10/20 07:51:31;;;;;;;;;20.33;17.67;;;;;;;;5095073;28;8846;-78
2021/10/20 07:53:56;;;;;;;;;19.00;19.00;;;;;;;;5096218;28;8876;-79
2021/10/20 07:56:21;;;;;;;;;20.00;19.00;;;;;;;;5096247;28;8828;-78
2021/10/20 07:58:46;;;;;;;;;18.67;18.67;;;;;;;;5096694;28;8817;-79
2021/10/20 08:01:12;;;;;;;;;19.00;19.00;;;;;;;;5096691;28;8794;-77
2021/10/20 08:03:37;;;;;;;;;19.00;19.00;;;;;;;;5094995;28;8916;-79
2021/10/20 08:06:02;;;;;;;;;18.00;18.00;;;;;;;;5094908;28;8824;-79
2021/10/20 08:08:28;;;;;;;;;18.00;17.33;;;;;;;;5096688;28;8798;-80
2021/10/20 08:10:53;;;;;;;;;20.67;20.67;;;;;;;;5096709;28;8785;-79
2021/10/20 08:13:18;;;;;;;;;18.67;18.00;;;;;;;;5097590;28;8893;-78
2021/10/20 08:15:43;;;;;;;;;20.00;19.00;;;;;;;;5096246;28;8798;-80
2021/10/20 08:18:09;;;;;;;;;16.67;16.67;;;;;;;;5096448;28;8824;-79
2021/10/20 08:20:35;;;;;;;;;21.33;19.67;;;;;;;;5077899;28;8797;-79
2021/10/20 08:23:01;;;;;;;;;16.75;15.50;;;;;;;;5096553;28;8766;-79
2021/10/20 08:25:27;;;;;;;;;19.00;18.50;;;;;;;;5094843;28;8790;-79
2021/10/20 08:27:52;;;;;;;;;19.00;19.00;;;;;;;;5098517;28;8815;-79
2021/10/20 08:30:18;;;;;;;;;21.67;21.67;;;;;;;;5107855;28;8807;-79
2021/10/20 08:32:55;;;;;;;;;23.00;22.00;;;;;;;;5120192;27;8783;-79
2021/10/20 08:35:21;;;;;;;;;20.50;19.00;;;;;;;;5120369;27;9805;-79
2021/10/20 08:37:47;;;;;;;;;21.67;19.00;;;;;;;;5118228;28;8909;-77
2021/10/20 08:40:13;;;;;;;;;21.25;18.75;;;;;;;;5119925;27;9449;-79
2021/10/20 08:42:42;;;;;;;;;17.00;17.00;;;;;;;;5119693;27;8811;-79
2021/10/20 08:45:08;;;;;;;;;19.25;19.25;;;;;;;;5118379;28;8791;-79
2021/10/20 08:47:33;;;;;;;;;25.00;22.00;;;;;;;;5119640;27;8771;-78
2021/10/20 08:50:01;;;;;;;;;18.00;18.00;;;;;;;;5118316;28;8950;-79
2021/10/20 08:52:27;;;;;;;;;17.50;16.75;;;;;;;;5119364;27;8813;-78
2021/10/20 08:54:53;;;;;;;;;20.00;20.00;;;;;;;;5119526;27;9736;-79
2021/10/20 08:57:19;;;;;;;;;21.75;20.00;;;;;;;;5118089;28;8981;-79
2021/10/20 08:59:44;;;;;;;;;19.67;19.67;;;;;;;;5119348;27;8834;-80
2021/10/20 09:02:11;;;;;;;;;21.33;20.67;;;;;;;;5118193;28;8803;-79
2021/10/20 09:04:36;;;;;;;;;21.25;21.25;;;;;;;;5119645;27;8791;-79
2021/10/20 09:07:11;;;;;;;;;20.00;19.67;;;;;;;;5119568;27;8783;-80
2021/10/20 09:09:37;;;;;;;;;20.75;18.75;;;;;;;;5119697;27;8746;-82
2021/10/20 09:12:02;;;;;;;;;17.00;15.67;;;;;;;;5119074;27;8794;-81
2021/10/20 09:14:27;;;;;;;;;23.50;23.50;;;;;;;;5119034;27;8819;-80
2021/10/20 09:16:52;;;;;;;;;22.33;20.67;;;;;;;;5119511;27;8871;-81
2021/10/20 09:19:20;;;;;;;;;22.33;22.33;;;;;;;;5119206;27;8787;-81
2021/10/20 09:22:09;;;;;;;;;19.75;18.50;;;;;;;;5118033;28;9732;-81
2021/10/20 09:24:35;;;;;;;;;20.75;19.75;;;;;;;;5119789;27;8798;-80
2021/10/20 09:27:01;;;;;;;;;21.25;19.75;;;;;;;;5117347;28;8806;-80
2021/10/20 09:29:28;;;;;;;;;22.67;21.33;;;;;;;;5116385;28;8795;-79
2021/10/20 09:31:54;;;;;;;;;22.50;22.50;;;;;;;;5098853;28;8770;-80
2021/10/20 09:34:19;;;;;;;;;23.33;23.33;;;;;;;;5099328;28;9018;-80
2021/10/20 09:36:44;;;;;;;;;23.00;22.00;;;;;;;;5098445;28;9529;-79
2021/10/20 09:39:10;;;;;;;;;22.00;22.00;;;;;;;;5098823;28;9545;-80
2021/10/20 09:41:36;;;;;;;;;20.33;19.00;;;;;;;;5099143;28;8804;-80
2021/10/20 09:44:01;;;;;;;;;23.33;23.00;;;;;;;;5098295;28;11620;-80
2021/10/20 09:46:31;;;;;;;;;27.33;26.33;;;;;;;;5099511;28;8793;-79
2021/10/20 09:48:59;;;;;;;;;24.00;23.75;;;;;;;;5098184;28;8792;-82
2021/10/20 09:51:24;;;;;;;;;25.25;23.50;;;;;;;;5099047;28;8770;-80
2021/10/20 09:53:50;;;;;;;;;25.67;25.00;;;;;;;;5099650;28;8879;-79
2021/10/20 09:56:19;;;;;;;;;21.50;21.50;;;;;;;;5101513;28;8761;-81
2021/10/20 09:58:46;;;;;;;;;23.75;23.25;;;;;;;;5098105;28;8745;-77
2021/10/20 10:01:12;;;;;;;;;23.25;20.50;;;;;;;;5097510;28;8774;-77
2021/10/20 10:03:38;;;;;;;;;26.25;24.50;;;;;;;;5079697;28;8789;-77
2021/10/20 10:06:03;;;;;;;;;23.00;23.00;;;;;;;;5097982;28;8782;-77
2021/10/20 10:08:28;;;;;;;;;23.00;20.00;;;;;;;;5097675;28;8805;-77
2021/10/20 10:10:54;;;;;;;;;22.67;22.67;;;;;;;;5097738;28;8892;-77
2021/10/20 10:13:21;;;;;;;;;24.00;22.67;;;;;;;;5097472;28;8794;-77
2021/10/20 10:15:47;;;;;;;;;23.50;23.50;;;;;;;;5097256;28;8800;-77
2021/10/20 10:18:13;;;;;;;;;22.00;22.00;;;;;;;;5097932;28;8778;-77
2021/10/20 10:20:39;;;;;;;;;23.67;23.33;;;;;;;;5097548;28;8778;-76
2021/10/20 10:23:08;;;;;;;;;24.75;22.50;;;;;;;;5097434;28;10030;-80
2021/10/20 10:25:38;;;;;;;;;20.00;19.25;;;;;;;;5097522;28;8762;-81
2021/10/20 10:28:23;;;;;;;;;22.00;21.00;;;;;;;;5097479;28;8774;-78
2021/10/20 10:30:53;;;;;;;;;22.25;21.25;;;;;;;;5110327;28;8819;-79
2021/10/20 10:33:25;;;;;;;;;24.50;23.50;;;;;;;;5117122;28;8890;-79
2021/10/20 10:36:09;;;;;;;;;18.25;18.00;;;;;;;;5118584;27;8771;-80
2021/10/20 10:38:50;;;;;;;;;21.00;20.00;;;;;;;;5116070;28;8740;-76
2021/10/20 10:41:19;;;;;;;;;14.25;14.25;;;;;;;;5117543;27;8783;-75
2021/10/20 10:43:59;;;;;;;;;21.50;21.50;;;;;;;;5117918;27;8787;-75
2021/10/20 10:46:26;;;;;;;;;19.50;19.50;;;;;;;;5117703;27;8880;-75
2021/10/20 10:48:52;;;;;;;;;20.00;18.75;;;;;;;;5117283;27;8779;-78
2021/10/20 10:51:19;;;;;;;;;17.00;17.00;;;;;;;;5115379;28;8965;-80
2021/10/20 10:53:52;;;;;;;;;20.25;20.25;;;;;;;;5119610;27;8795;-78
2021/10/20 10:56:20;;;;;;;;;21.50;19.75;;;;;;;;5116056;28;8833;-80
2021/10/20 10:58:52;;;;;;;;;16.50;15.75;;;;;;;;5117532;27;8799;-78
2021/10/20 11:01:43;;;;;;;;;21.50;19.75;;;;;;;;5117423;27;8771;-81
2021/10/20 11:04:14;;;;;;;;;18.50;18.25;;;;;;;;5116631;27;8775;-76
2021/10/20 11:06:40;;;;;;;;;22.00;20.00;;;;;;;;5117317;28;8783;-76
2021/10/20 11:09:07;;;;;;;;;18.00;18.00;;;;;;;;5117494;27;8782;-75
2021/10/20 11:11:32;;;;;;;;;15.75;15.50;;;;;;;;5117182;27;9227;-76
2021/10/20 11:13:59;;;;;;;;;17.00;16.33;;;;;;;;5117255;27;8845;-76
2021/10/20 11:16:25;;;;;;;;;18.75;18.00;;;;;;;;5117231;27;8799;-78
2021/10/20 11:18:51;;;;;;;;;20.67;20.67;;;;;;;;5117164;27;8775;-77
2021/10/20 11:21:18;;;;;;;;;19.00;19.00;;;;;;;;5116946;27;8794;-79
2021/10/20 11:23:44;;;;;;;;;19.50;18.75;;;;;;;;5117138;27;8779;-80
2021/10/20 11:26:10;;;;;;;;;14.67;14.67;;;;;;;;5116852;27;8771;-80
2021/10/20 11:28:36;;;;;;;;;19.00;17.33;;;;;;;;5117179;27;8809;-80
2021/10/20 11:31:05;;;;;;;;;15.50;15.50;;;;;;;;5102095;27;8794;-79
2021/10/20 11:33:30;;;;;;;;;16.75;15.50;;;;;;;;5096451;28;8794;-77
2021/10/20 11:35:56;;;;;;;;;19.00;18.67;;;;;;;;5096598;28;8826;-77
2021/10/20 11:38:21;;;;;;;;;13.67;12.00;;;;;;;;5096036;28;8805;-76
2021/10/20 11:40:49;;;;;;;;;16.00;15.33;;;;;;;;5096367;28;8826;-76
2021/10/20 11:43:15;;;;;;;;;17.25;16.25;;;;;;;;5096193;28;8790;-75
2021/10/20 11:45:40;;;;;;;;;15.00;15.00;;;;;;;;5094812;28;8798;-80
2021/10/20 11:48:05;;;;;;;;;13.33;13.00;;;;;;;;5096280;28;8817;-81
2021/10/20 11:50:31;;;;;;;;;13.00;12.67;;;;;;;;5094909;28;8837;-79
2021/10/20 11:52:58;;;;;;;;;12.67;11.33;;;;;;;;5096020;28;8781;-80
2021/10/20 11:55:23;;;;;;;;;12.75;12.50;;;;;;;;5095021;28;8825;-80
2021/10/20 11:57:49;;;;;;;;;16.00;13.67;;;;;;;;5093662;28;8806;-81
2021/10/20 12:00:14;;;;;;;;;15.67;15.67;;;;;;;;5096100;28;8860;-78
2021/10/20 12:02:39;;;;;;;;;11.00;11.00;;;;;;;;5105821;28;8823;-77
2021/10/20 12:05:05;;;;;;;;;14.67;14.00;;;;;;;;5107839;28;8809;-78
2021/10/20 12:07:30;;;;;;;;;15.33;13.67;;;;;;;;5105384;28;8825;-79
2021/10/20 12:09:57;;;;;;;;;12.00;12.00;;;;;;;;5111159;28;8811;-77
2021/10/20 12:12:22;;;;;;;;;11.50;10.00;;;;;;;;5109185;28;8807;-79
2021/10/20 12:14:47;;;;;;;;;11.67;11.67;;;;;;;;5108683;28;8915;-77
2021/10/20 12:17:13;;;;;;;;;10.33;10.33;;;;;;;;5102717;28;8834;-81
2021/10/20 12:19:40;;;;;;;;;12.67;11.67;;;;;;;;5098057;28;8793;-80
2021/10/20 12:22:13;;;;;;;;;12.25;12.25;;;;;;;;5096181;28;11516;-78
2021/10/20 12:24:40;;;;;;;;;11.00;10.00;;;;;;;;5097652;28;8747;-82
2021/10/20 12:27:06;;;;;;;;;10.75;10.75;;;;;;;;5097390;28;8805;-81
2021/10/20 12:29:36;;;;;;;;;12.00;11.25;;;;;;;;5101336;28;9735;-82
2021/10/20 12:32:01;;;;;;;;;13.00;12.25;;;;;;;;5099215;28;8790;-83
2021/10/20 12:34:27;;;;;;;;;9.00;9.00;;;;;;;;5103657;28;8845;-81
2021/10/20 12:36:52;;;;;;;;;13.33;13.33;;;;;;;;5099328;28;8798;-82
2021/10/20 12:39:18;;;;;;;;;12.67;12.00;;;;;;;;5100738;28;11510;-79
2021/10/20 12:41:46;;;;;;;;;10.67;9.67;;;;;;;;5098515;28;8802;-78
2021/10/20 12:44:11;;;;;;;;;12.50;12.50;;;;;;;;5098570;28;8798;-78
2021/10/20 12:46:43;;;;;;;;;13.00;10.33;;;;;;;;5098149;28;8830;-78
2021/10/20 12:49:10;;;;;;;;;10.25;10.25;;;;;;;;5102153;28;8887;-81
2021/10/20 12:51:36;;;;;;;;;10.50;10.50;;;;;;;;5108831;28;8800;-81
2021/10/20 12:54:05;;;;;;;;;10.50;10.50;;;;;;;;5112431;28;8853;-81
2021/10/20 12:56:31;;;;;;;;;11.75;10.25;;;;;;;;5105848;28;8841;-79
2021/10/20 12:59:03;;;;;;;;;12.33;10.00;;;;;;;;5107892;28;8810;-81
2021/10/20 13:01:28;;;;;;;;;11.25;11.25;;;;;;;;5102772;28;8774;-83
2021/10/20 13:03:53;;;;;;;;;12.00;12.00;;;;;;;;5100198;28;8806;-79
2021/10/20 13:06:19;;;;;;;;;10.00;9.00;;;;;;;;5098515;28;8826;-78
2021/10/20 13:08:46;;;;;;;;;11.67;11.67;;;;;;;;5098029;28;8854;-79
2021/10/20 13:11:11;;;;;;;;;12.00;11.00;;;;;;;;5097879;28;8794;-79
2021/10/20 13:13:37;;;;;;;;;13.00;13.00;;;;;;;;5098375;28;8913;-80
2021/10/20 13:16:02;;;;;;;;;11.00;11.00;;;;;;;;5108483;28;8807;-77
2021/10/20 13:18:29;;;;;;;;;13.67;13.67;;;;;;;;5119564;28;8891;-78
2021/10/20 13:20:55;;;;;;;;;13.00;12.00;;;;;;;;5117330;28;8822;-77
2021/10/20 13:23:20;;;;;;;;;13.33;13.33;;;;;;;;5117260;28;8823;-76
2021/10/20 13:25:46;;;;;;;;;12.00;12.00;;;;;;;;5119085;27;8811;-80
2021/10/20 13:28:12;;;;;;;;;14.00;13.33;;;;;;;;5117033;28;9684;-80
2021/10/20 13:30:38;;;;;;;;;14.00;13.33;;;;;;;;5118612;28;8783;-79
2021/10/20 13:33:05;;;;;;;;;16.00;14.33;;;;;;;;5117175;28;11501;-79
2021/10/20 13:35:31;;;;;;;;;14.75;12.00;;;;;;;;5118786;27;10802;-78
2021/10/20 13:37:58;;;;;;;;;16.25;13.75;;;;;;;;5100249;28;8870;-79
2021/10/20 13:40:23;;;;;;;;;13.00;12.75;;;;;;;;5118762;27;8832;-78
2021/10/20 13:42:49;;;;;;;;;16.00;15.33;;;;;;;;5118820;27;8826;-77
2021/10/20 13:45:16;;;;;;;;;12.50;12.50;;;;;;;;5118652;27;8791;-78
2021/10/20 13:47:41;;;;;;;;;8.25;8.25;;;;;;;;5118745;27;8778;-77
2021/10/20 13:50:06;;;;;;;;;15.67;14.67;;;;;;;;5118684;28;9515;-76
2021/10/20 13:52:32;;;;;;;;;10.33;10.33;;;;;;;;5116865;28;8949;-78
2021/10/20 13:54:57;;;;;;;;;13.67;13.67;;;;;;;;5118518;27;8831;-78
2021/10/20 13:57:22;;;;;;;;;13.00;13.00;;;;;;;;5116875;28;9566;-78
2021/10/20 13:59:48;;;;;;;;;11.67;11.67;;;;;;;;5117074;28;9049;-78
2021/10/20 14:02:13;;;;;;;;;13.33;13.33;;;;;;;;5117029;28;8791;-77
2021/10/20 14:04:39;;;;;;;;;6.33;6.33;;;;;;;;5117173;28;8838;-78
2021/10/20 14:07:07;;;;;;;;;12.67;12.67;;;;;;;;5117973;27;8779;-78
2021/10/20 14:09:33;;;;;;;;;11.25;11.25;;;;;;;;5118367;27;8763;-78
2021/10/20 14:11:58;;;;;;;;;12.00;12.00;;;;;;;;5118228;27;8795;-78
2021/10/20 14:14:23;;;;;;;;;16.00;14.33;;;;;;;;5118016;27;8883;-78
2021/10/20 14:16:49;;;;;;;;;12.67;11.33;;;;;;;;5118110;27;8837;-80
2021/10/20 14:19:15;;;;;;;;;10.75;9.50;;;;;;;;5118133;27;8799;-78
2021/10/20 14:21:40;;;;;;;;;9.67;9.67;;;;;;;;5118107;27;8874;-81
2021/10/20 14:24:06;;;;;;;;;11.00;11.00;;;;;;;;5117780;27;8814;-83